createdAt,value
2016-04-10T00:00:39.811Z,22.28
2016-04-10T00:01:39.813Z,22.27
2016-04-10T00:02:39.816Z,22.25
2016-04-10T00:03:39.835Z,22.39
2016-04-10T00:04:39.838Z,22.28
2016-04-10T00:05:39.840Z,22.3
2016-04-10T00:06:39.843Z,22.33
2016-04-10T00:07:39.892Z,22.3
2016-04-10T00:08:39.864Z,22.31
2016-04-10T00:09:39.866Z,22.28
2016-04-10T00:10:39.713Z,22.31
2016-04-10T00:11:39.871Z,22.31
2016-04-10T00:12:39.874Z,22.33
2016-04-10T00:13:39.893Z,22.25
2016-04-10T00:14:39.895Z,22.2
2016-04-10T00:15:39.899Z,22.2
2016-04-10T00:16:39.916Z,22.18
2016-04-10T00:17:39.903Z,22.22
2016-04-10T00:18:39.907Z,22.27
2016-04-10T00:19:39.909Z,22.22
2016-04-10T00:20:39.927Z,22.22
2016-04-10T00:21:39.929Z,22.24
2016-04-10T00:22:39.932Z,22.27
2016-04-10T00:23:39.934Z,22.22
2016-04-10T00:24:39.938Z,22.18
2016-04-10T00:25:39.956Z,22.22
2016-04-10T00:26:39.959Z,22.15
2016-04-10T00:27:39.961Z,22.18
2016-04-10T00:28:39.964Z,22.22
2016-04-10T00:29:39.983Z,22.14
2016-04-10T00:30:39.985Z,22.18
2016-04-10T00:31:39.988Z,22.17
2016-04-10T00:32:40.006Z,22.17
2016-04-10T00:33:39.994Z,22.2
2016-04-10T00:34:39.996Z,22.18
2016-04-10T00:35:40.014Z,22.2
2016-04-10T00:36:40.017Z,22.2
2016-04-10T00:37:40.035Z,22.21
2016-04-10T00:38:40.023Z,22.17
2016-04-10T00:39:40.025Z,22.2
2016-04-10T00:40:40.044Z,22.14
2016-04-10T00:41:40.046Z,22.24
2016-04-10T00:42:40.049Z,22.21
2016-04-10T00:43:40.052Z,22.17
2016-04-10T00:44:40.070Z,22.21
2016-04-10T00:45:40.073Z,22.2
2016-04-10T00:46:40.075Z,22.21
2016-04-10T00:47:40.078Z,22.24
2016-04-10T00:48:40.081Z,22.17
2016-04-10T00:49:40.084Z,22.15
2016-04-10T00:50:40.086Z,22.17
2016-04-10T00:51:40.089Z,22.22
2016-04-10T00:52:40.107Z,22.12
2016-04-10T00:53:40.110Z,22.2
2016-04-10T00:54:40.112Z,22.18
2016-04-10T00:55:40.131Z,22.17
2016-04-10T00:56:40.148Z,22.2
2016-04-10T00:57:40.136Z,22.25
2016-04-10T00:58:40.154Z,22.22
2016-04-10T00:59:40.141Z,22.22
2016-04-10T01:00:40.144Z,22.2
2016-04-10T01:01:40.162Z,22.21
2016-04-10T01:02:40.165Z,22.22
2016-04-10T01:03:40.168Z,22.27
2016-04-10T01:04:40.170Z,22.27
2016-04-10T01:05:40.215Z,22.27
2016-04-10T01:06:40.256Z,22.24
2016-04-10T01:07:40.300Z,22.33
2016-04-10T01:08:40.343Z,22.28
2016-04-10T01:09:40.401Z,22.28
2016-04-10T01:10:40.428Z,22.35
2016-04-10T01:11:40.444Z,22.24
2016-04-10T01:12:40.446Z,22.31
2016-04-10T01:13:40.480Z,22.35
2016-04-10T01:14:40.496Z,22.28
2016-04-10T01:15:39.772Z,22.28
2016-04-10T01:16:40.530Z,22.28
2016-04-10T01:17:40.538Z,22.31
2016-04-10T01:18:40.561Z,22.39
2016-04-10T01:19:40.553Z,22.33
2016-04-10T01:20:40.559Z,22.46
2016-04-10T01:21:40.563Z,22.37
2016-04-10T01:22:40.600Z,22.28
2016-04-10T01:23:40.588Z,22.36
2016-04-10T01:24:40.609Z,22.3
2016-04-10T01:25:40.598Z,22.28
2016-04-10T01:26:40.616Z,22.31
2016-04-10T01:27:40.635Z,22.33
2016-04-10T01:28:40.624Z,22.4
2016-04-10T01:29:40.627Z,22.31
2016-04-10T01:30:40.630Z,22.43
2016-04-10T01:31:40.648Z,22.37
2016-04-10T01:32:40.651Z,22.24
2016-04-10T01:33:40.483Z,22.42
2016-04-10T01:34:40.673Z,22.37
2016-04-10T01:35:40.660Z,22.36
2016-04-10T01:36:40.663Z,22.42
2016-04-10T01:37:40.681Z,22.4
2016-04-10T01:38:40.669Z,22.39
2016-04-10T01:39:40.687Z,22.43
2016-04-10T01:40:40.705Z,22.33
2016-04-10T01:41:40.707Z,22.3
2016-04-10T01:42:40.695Z,22.39
2016-04-10T01:43:40.713Z,22.33
2016-04-10T01:44:40.715Z,22.36
2016-04-10T01:45:40.719Z,22.37
2016-04-10T01:46:40.737Z,22.37
2016-04-10T01:47:40.740Z,22.36
2016-04-10T01:48:40.743Z,22.35
2016-04-10T01:49:40.745Z,22.37
2016-04-10T01:50:40.748Z,22.36
2016-04-10T01:51:40.750Z,22.4
2016-04-10T01:52:40.753Z,22.27
2016-04-10T01:53:40.772Z,22.4
2016-04-10T01:54:40.774Z,22.31
2016-04-10T01:55:40.777Z,22.28
2016-04-10T01:56:40.780Z,22.31
2016-04-10T01:57:40.797Z,22.37
2016-04-10T01:58:40.800Z,22.36
2016-04-10T01:59:40.803Z,22.33
2016-04-10T02:00:40.806Z,22.35
2016-04-10T02:01:40.808Z,22.4
2016-04-10T02:02:40.811Z,22.35
2016-04-10T02:03:40.814Z,22.37
2016-04-10T02:04:40.832Z,22.36
2016-04-10T02:05:40.835Z,22.42
2016-04-10T02:06:40.837Z,22.28
2016-04-10T02:07:41.012Z,22.42
2016-04-10T02:08:40.844Z,22.31
2016-04-10T02:09:40.862Z,22.31
2016-04-10T02:10:40.865Z,22.4
2016-04-10T02:11:40.867Z,22.4
2016-04-10T02:12:40.870Z,22.42
2016-04-10T02:13:40.873Z,22.46
2016-04-10T02:14:40.890Z,22.43
2016-04-10T02:15:40.878Z,22.31
2016-04-10T02:16:40.896Z,22.39
2016-04-10T02:17:40.914Z,22.37
2016-04-10T02:18:40.902Z,22.31
2016-04-10T02:19:40.904Z,22.36
2016-04-10T02:20:40.923Z,22.33
2016-04-10T02:21:40.925Z,22.39
2016-04-10T02:22:40.943Z,22.42
2016-04-10T02:23:40.931Z,22.25
2016-04-10T02:24:40.948Z,22.42
2016-04-10T02:25:40.951Z,22.4
2016-04-10T02:26:40.953Z,22.31
2016-04-10T02:27:40.956Z,22.28
2016-04-10T02:28:40.959Z,22.27
2016-04-10T02:29:40.978Z,22.3
2016-04-10T02:30:40.981Z,22.35
2016-04-10T02:31:40.983Z,22.31
2016-04-10T02:32:40.985Z,22.4
2016-04-10T02:33:40.989Z,22.31
2016-04-10T02:34:40.991Z,22.39
2016-04-10T02:35:41.025Z,22.31
2016-04-10T02:36:41.012Z,22.4
2016-04-10T02:37:41.030Z,22.27
2016-04-10T02:38:41.018Z,22.25
2016-04-10T02:39:41.035Z,22.39
2016-04-10T02:40:41.038Z,22.31
2016-04-10T02:41:41.041Z,22.33
2016-04-10T02:42:41.044Z,22.27
2016-04-10T02:43:41.063Z,22.31
2016-04-10T02:44:41.065Z,22.24
2016-04-10T02:45:41.068Z,22.27
2016-04-10T02:46:41.070Z,22.27
2016-04-10T02:47:41.073Z,22.36
2016-04-10T02:48:41.076Z,22.28
2016-04-10T02:49:41.078Z,22.24
2016-04-10T02:50:41.097Z,22.31
2016-04-10T02:51:41.099Z,22.27
2016-04-10T02:52:41.117Z,22.42
2016-04-10T02:53:41.120Z,22.28
2016-04-10T02:54:41.123Z,22.31
2016-04-10T02:55:41.126Z,22.28
2016-04-10T02:56:41.128Z,22.31
2016-04-10T02:57:41.131Z,22.33
2016-04-10T02:58:41.134Z,22.3
2016-04-10T02:59:41.152Z,22.33
2016-04-10T03:00:41.155Z,22.25
2016-04-10T03:01:41.172Z,22.31
2016-04-10T03:02:41.175Z,22.27
2016-04-10T03:03:41.195Z,22.28
2016-04-10T03:04:41.181Z,22.3
2016-04-10T03:05:41.183Z,22.28
2016-04-10T03:06:41.186Z,22.28
2016-04-10T03:07:41.189Z,22.42
2016-04-10T03:08:41.055Z,22.27
2016-04-10T03:09:41.197Z,22.25
2016-04-10T03:10:41.200Z,22.27
2016-04-10T03:11:41.203Z,22.28
2016-04-10T03:12:41.205Z,22.42
2016-04-10T03:13:41.224Z,22.31
2016-04-10T03:14:41.226Z,22.37
2016-04-10T03:15:41.229Z,22.28
2016-04-10T03:16:41.232Z,22.3
2016-04-10T03:17:41.251Z,22.35
2016-04-10T03:18:41.254Z,22.42
2016-04-10T03:19:41.256Z,22.28
2016-04-10T03:20:41.259Z,22.3
2016-04-10T03:21:41.293Z,22.28
2016-04-10T03:22:41.279Z,22.3
2016-04-10T03:23:41.282Z,22.31
2016-04-10T03:24:41.284Z,22.31
2016-04-10T03:25:41.304Z,22.28
2016-04-10T03:26:41.306Z,22.33
2016-04-10T03:27:41.309Z,22.33
2016-04-10T03:28:41.296Z,22.31
2016-04-10T03:29:41.314Z,22.25
2016-04-10T03:30:41.317Z,22.27
2016-04-10T03:31:41.320Z,22.27
2016-04-10T03:32:41.353Z,22.36
2016-04-10T03:33:41.340Z,22.27
2016-04-10T03:34:41.342Z,22.24
2016-04-10T03:35:41.345Z,22.3
2016-04-10T03:36:41.348Z,22.35
2016-04-10T03:37:41.366Z,22.25
2016-04-10T03:38:41.370Z,22.27
2016-04-10T03:39:41.372Z,22.3
2016-04-10T03:40:41.375Z,22.22
2016-04-10T03:41:41.378Z,22.27
2016-04-10T03:42:41.396Z,22.25
2016-04-10T03:43:41.399Z,22.24
2016-04-10T03:44:41.401Z,22.22
2016-04-10T03:45:41.419Z,22.24
2016-04-10T03:46:41.422Z,22.22
2016-04-10T03:47:41.410Z,22.22
2016-04-10T03:48:41.428Z,22.15
2016-04-10T03:49:41.429Z,22.14
2016-04-10T03:50:41.433Z,22.18
2016-04-10T03:51:41.436Z,22.09
2016-04-10T03:52:41.454Z,22.2
2016-04-10T03:53:41.457Z,22.25
2016-04-10T03:54:41.459Z,22.21
2016-04-10T03:55:41.462Z,22.14
2016-04-10T03:56:41.465Z,22.17
2016-04-10T03:57:41.468Z,22.17
2016-04-10T03:58:41.486Z,22.18
2016-04-10T03:59:41.534Z,22.17
2016-04-10T04:00:41.475Z,22.18
2016-04-10T04:01:41.510Z,22.18
2016-04-10T04:02:41.497Z,22.15
2016-04-10T04:03:41.515Z,22.24
2016-04-10T04:04:41.517Z,22.21
2016-04-10T04:05:41.520Z,22.18
2016-04-10T04:06:41.539Z,22.18
2016-04-10T04:07:41.525Z,22.2
2016-04-10T04:08:41.528Z,22.2
2016-04-10T04:09:41.547Z,22.12
2016-04-10T04:10:41.550Z,22.1
2016-04-10T04:11:41.553Z,22.14
2016-04-10T04:12:41.555Z,22.18
2016-04-10T04:13:41.558Z,22.17
2016-04-10T04:14:41.575Z,22.18
2016-04-10T04:15:41.578Z,22.15
2016-04-10T04:16:41.581Z,22.18
2016-04-10T04:17:41.599Z,22.15
2016-04-10T04:18:41.633Z,22.12
2016-04-10T04:19:41.432Z,22.1
2016-04-10T04:20:41.623Z,22.15
2016-04-10T04:21:41.610Z,22.14
2016-04-10T04:22:41.613Z,22.14
2016-04-10T04:23:41.632Z,22.12
2016-04-10T04:24:41.618Z,22.12
2016-04-10T04:25:41.637Z,22.15
2016-04-10T04:26:41.640Z,22.15
2016-04-10T04:27:41.642Z,22.15
2016-04-10T04:28:41.645Z,22.09
2016-04-10T04:29:41.648Z,22.14
2016-04-10T04:30:41.665Z,22.14
2016-04-10T04:31:41.668Z,22.06
2016-04-10T04:32:41.687Z,22.18
2016-04-10T04:33:41.690Z,22.2
2016-04-10T04:34:41.676Z,22.18
2016-04-10T04:35:41.695Z,22.21
2016-04-10T04:36:41.697Z,22.21
2016-04-10T04:37:41.700Z,22.14
2016-04-10T04:38:41.734Z,22.2
2016-04-10T04:39:41.705Z,22.18
2016-04-10T04:40:41.724Z,22.14
2016-04-10T04:41:41.727Z,22.14
2016-04-10T04:42:41.730Z,22.09
2016-04-10T04:43:41.732Z,22.12
2016-04-10T04:44:41.749Z,22.12
2016-04-10T04:45:41.753Z,22.12
2016-04-10T04:46:41.755Z,22.14
2016-04-10T04:47:41.757Z,22.09
2016-04-10T04:48:41.761Z,22.09
2016-04-10T04:49:41.779Z,22.14
2016-04-10T04:50:41.771Z,22.12
2016-04-10T04:51:41.774Z,22.09
2016-04-10T04:52:41.776Z,22.14
2016-04-10T04:53:41.779Z,22.07
2016-04-10T04:54:41.798Z,22.06
2016-04-10T04:55:41.644Z,22.05
2016-04-10T04:56:41.646Z,22.12
2016-04-10T04:57:41.805Z,22.14
2016-04-10T04:58:41.809Z,22.12
2016-04-10T04:59:41.811Z,22.06
2016-04-10T05:00:41.828Z,22.17
2016-04-10T05:01:41.832Z,22.15
2016-04-10T05:02:41.834Z,22.2
2016-04-10T05:03:41.837Z,22.17
2016-04-10T05:04:41.856Z,22.14
2016-04-10T05:05:41.858Z,22.14
2016-04-10T05:06:41.877Z,22.12
2016-04-10T05:07:41.864Z,22.14
2016-04-10T05:08:41.866Z,22.12
2016-04-10T05:09:41.885Z,22.1
2016-04-10T05:10:41.888Z,22.06
2016-04-10T05:11:41.890Z,22.07
2016-04-10T05:12:41.894Z,22.15
2016-04-10T05:13:41.896Z,22.1
2016-04-10T05:14:41.914Z,22.06
2016-04-10T05:15:41.932Z,22.07
2016-04-10T05:16:41.919Z,22.1
2016-04-10T05:17:41.921Z,22.06
2016-04-10T05:18:41.925Z,22.02
2016-04-10T05:19:41.943Z,22.14
2016-04-10T05:20:41.945Z,22.14
2016-04-10T05:21:41.933Z,22.09
2016-04-10T05:22:41.966Z,22.14
2016-04-10T05:23:41.953Z,22.14
2016-04-10T05:24:41.957Z,22.12
2016-04-10T05:25:41.990Z,22.14
2016-04-10T05:26:41.821Z,22.1
2016-04-10T05:27:41.995Z,22.14
2016-04-10T05:28:41.998Z,22.12
2016-04-10T05:29:41.985Z,22.12
2016-04-10T05:30:42.019Z,22.1
2016-04-10T05:31:42.006Z,22.15
2016-04-10T05:32:42.009Z,22.14
2016-04-10T05:33:42.027Z,22.17
2016-04-10T05:34:42.015Z,22.17
2016-04-10T05:35:42.017Z,22.18
2016-04-10T05:36:42.035Z,22.18
2016-04-10T05:37:42.039Z,22.18
2016-04-10T05:38:42.041Z,22.2
2016-04-10T05:39:42.074Z,22.21
2016-04-10T05:40:42.047Z,22.17
2016-04-10T05:41:42.064Z,22.14
2016-04-10T05:42:42.067Z,22.15
2016-04-10T05:43:42.070Z,22.17
2016-04-10T05:44:42.072Z,22.18
2016-04-10T05:45:42.075Z,22.17
2016-04-10T05:46:42.077Z,22.17
2016-04-10T05:47:42.112Z,22.14
2016-04-10T05:48:42.099Z,22.12
2016-04-10T05:49:42.102Z,22.12
2016-04-10T05:50:42.121Z,22.17
2016-04-10T05:51:42.123Z,22.09
2016-04-10T05:52:42.141Z,22.06
2016-04-10T05:53:42.128Z,22.15
2016-04-10T05:54:42.131Z,22.15
2016-04-10T05:55:42.149Z,22.14
2016-04-10T05:56:42.151Z,22.05
2016-04-10T05:57:42.155Z,22.05
2016-04-10T05:58:42.157Z,22.09
2016-04-10T05:59:42.159Z,22.1
2016-04-10T06:00:42.162Z,22.15
2016-04-10T06:01:42.181Z,22.17
2016-04-10T06:02:42.183Z,22.12
2016-04-10T06:03:42.186Z,22.17
2016-04-10T06:04:42.189Z,22.1
2016-04-10T06:05:42.207Z,22.05
2016-04-10T06:06:42.209Z,22.14
2016-04-10T06:07:42.212Z,22.12
2016-04-10T06:08:42.356Z,22.12
2016-04-10T06:09:42.217Z,22.03
2016-04-10T06:10:42.236Z,22.09
2016-04-10T06:11:42.239Z,22.07
2016-04-10T06:12:42.257Z,22.07
2016-04-10T06:13:42.261Z,22.07
2016-04-10T06:14:42.247Z,22.09
2016-04-10T06:15:42.265Z,22.09
2016-04-10T06:16:42.268Z,22.03
2016-04-10T06:17:42.271Z,22.12
2016-04-10T06:18:42.288Z,22.12
2016-04-10T06:19:42.307Z,22.03
2016-04-10T06:20:42.294Z,22.07
2016-04-10T06:21:42.297Z,22.03
2016-04-10T06:22:42.304Z,22.05
2016-04-10T06:23:42.311Z,22.14
2016-04-10T06:24:42.303Z,22.06
2016-04-10T06:25:42.797Z,22.12
2016-04-10T06:26:42.319Z,22.09
2016-04-10T06:27:42.338Z,22.03
2016-04-10T06:28:42.355Z,22.1
2016-04-10T06:29:42.343Z,22.03
2016-04-10T06:30:42.330Z,22.09
2016-04-10T06:31:42.348Z,22
2016-04-10T06:32:42.351Z,22.03
2016-04-10T06:33:42.354Z,22.05
2016-04-10T06:34:42.357Z,22.02
2016-04-10T06:35:42.359Z,22.09
2016-04-10T06:36:42.362Z,22.1
2016-04-10T06:37:42.380Z,22
2016-04-10T06:38:42.773Z,22.17
2016-04-10T06:39:42.384Z,22.14
2016-04-10T06:40:42.388Z,22.12
2016-04-10T06:41:42.390Z,22.12
2016-04-10T06:42:42.300Z,22.07
2016-04-10T06:43:42.396Z,22.03
2016-04-10T06:44:42.414Z,22.1
2016-04-10T06:45:42.276Z,22.1
2016-04-10T06:46:42.420Z,22.06
2016-04-10T06:47:42.438Z,22.09
2016-04-10T06:48:42.441Z,22.05
2016-04-10T06:49:42.444Z,22.12
2016-04-10T06:50:42.447Z,22.03
2016-04-10T06:51:42.464Z,22.02
2016-04-10T06:52:42.467Z,22.1
2016-04-10T06:53:42.455Z,22.06
2016-04-10T06:54:42.472Z,22.1
2016-04-10T06:55:42.475Z,22.06
2016-04-10T06:56:42.493Z,21.99
2016-04-10T06:57:42.513Z,22.03
2016-04-10T06:58:42.499Z,22.02
2016-04-10T06:59:42.501Z,22
2016-04-10T07:00:42.505Z,22.05
2016-04-10T07:01:42.523Z,21.91
2016-04-10T07:02:42.525Z,22.03
2016-04-10T07:03:42.529Z,21.91
2016-04-10T07:04:42.547Z,22
2016-04-10T07:05:42.565Z,22.05
2016-04-10T07:06:42.582Z,22
2016-04-10T07:07:42.555Z,21.92
2016-04-10T07:08:42.573Z,21.94
2016-04-10T07:09:42.559Z,21.91
2016-04-10T07:10:42.562Z,21.88
2016-04-10T07:11:42.565Z,22.02
2016-04-10T07:12:42.583Z,22
2016-04-10T07:13:42.602Z,21.92
2016-04-10T07:14:42.589Z,21.91
2016-04-10T07:15:42.607Z,21.94
2016-04-10T07:16:42.609Z,21.94
2016-04-10T07:17:42.612Z,21.94
2016-04-10T07:18:42.631Z,21.94
2016-04-10T07:19:42.633Z,21.92
2016-04-10T07:20:42.667Z,21.96
2016-04-10T07:21:42.639Z,21.92
2016-04-10T07:22:42.625Z,21.88
2016-04-10T07:23:42.801Z,21.88
2016-04-10T07:24:42.647Z,21.91
2016-04-10T07:25:42.650Z,21.96
2016-04-10T07:26:42.668Z,21.82
2016-04-10T07:27:42.671Z,21.9
2016-04-10T07:28:42.674Z,21.88
2016-04-10T07:29:42.519Z,21.94
2016-04-10T07:30:42.679Z,21.96
2016-04-10T07:31:42.682Z,21.88
2016-04-10T07:32:42.699Z,21.84
2016-04-10T07:33:42.703Z,21.92
2016-04-10T07:34:42.721Z,21.8
2016-04-10T07:35:42.708Z,21.9
2016-04-10T07:36:42.710Z,21.84
2016-04-10T07:37:42.729Z,21.92
2016-04-10T07:38:42.731Z,21.8
2016-04-10T07:39:42.718Z,21.82
2016-04-10T07:40:42.736Z,21.82
2016-04-10T07:41:42.740Z,21.8
2016-04-10T07:42:42.742Z,21.84
2016-04-10T07:43:42.761Z,21.82
2016-04-10T07:44:42.764Z,21.79
2016-04-10T07:45:42.781Z,21.92
2016-04-10T07:46:42.769Z,21.83
2016-04-10T07:47:42.787Z,21.84
2016-04-10T07:48:42.775Z,21.86
2016-04-10T07:49:42.792Z,21.84
2016-04-10T07:50:42.794Z,21.77
2016-04-10T07:51:42.797Z,21.86
2016-04-10T07:52:42.816Z,21.84
2016-04-10T07:53:42.803Z,21.86
2016-04-10T07:54:42.837Z,21.83
2016-04-10T07:55:42.808Z,21.8
2016-04-10T07:56:42.827Z,21.83
2016-04-10T07:57:42.830Z,21.83
2016-04-10T07:58:42.832Z,21.82
2016-04-10T07:59:42.835Z,21.83
2016-04-10T08:00:42.853Z,21.84
2016-04-10T08:01:42.855Z,21.82
2016-04-10T08:02:42.859Z,21.83
2016-04-10T08:03:42.861Z,21.88
2016-04-10T08:04:42.864Z,21.83
2016-04-10T08:05:42.882Z,21.84
2016-04-10T08:06:42.885Z,21.82
2016-04-10T08:07:42.887Z,21.79
2016-04-10T08:08:42.890Z,21.84
2016-04-10T08:09:42.909Z,21.79
2016-04-10T08:10:42.895Z,21.79
2016-04-10T08:11:42.915Z,21.79
2016-04-10T08:12:42.917Z,21.8
2016-04-10T08:13:42.919Z,21.84
2016-04-10T08:14:42.923Z,21.8
2016-04-10T08:15:42.940Z,21.83
2016-04-10T08:16:42.927Z,21.83
2016-04-10T08:17:42.945Z,21.79
2016-04-10T08:18:42.948Z,21.84
2016-04-10T08:19:42.951Z,21.75
2016-04-10T08:20:42.970Z,21.9
2016-04-10T08:21:42.956Z,21.8
2016-04-10T08:22:42.819Z,21.75
2016-04-10T08:23:42.977Z,21.77
2016-04-10T08:24:42.980Z,21.82
2016-04-10T08:25:42.982Z,21.9
2016-04-10T08:26:42.986Z,21.82
2016-04-10T08:27:43.004Z,21.77
2016-04-10T08:28:42.991Z,21.86
2016-04-10T08:29:43.010Z,21.82
2016-04-10T08:30:43.012Z,21.83
2016-04-10T08:31:43.015Z,21.91
2016-04-10T08:32:43.033Z,21.79
2016-04-10T08:33:43.020Z,21.88
2016-04-10T08:34:43.038Z,21.83
2016-04-10T08:35:43.041Z,21.82
2016-04-10T08:36:43.043Z,21.83
2016-04-10T08:37:43.063Z,21.8
2016-04-10T08:38:43.065Z,21.82
2016-04-10T08:39:43.067Z,21.84
2016-04-10T08:40:43.071Z,21.8
2016-04-10T08:41:43.073Z,21.8
2016-04-10T08:42:43.090Z,21.82
2016-04-10T08:43:43.079Z,21.82
2016-04-10T08:44:43.081Z,21.74
2016-04-10T08:45:43.099Z,21.79
2016-04-10T08:46:43.118Z,21.77
2016-04-10T08:47:43.104Z,21.79
2016-04-10T08:48:43.106Z,21.75
2016-04-10T08:49:43.110Z,21.8
2016-04-10T08:50:43.112Z,21.83
2016-04-10T08:51:43.130Z,21.83
2016-04-10T08:52:43.149Z,21.79
2016-04-10T08:53:43.136Z,21.79
2016-04-10T08:54:43.139Z,21.84
2016-04-10T08:55:43.157Z,21.86
2016-04-10T08:56:43.161Z,21.75
2016-04-10T08:57:43.163Z,21.84
2016-04-10T08:58:43.165Z,21.84
2016-04-10T08:59:43.169Z,21.77
2016-04-10T09:00:43.171Z,21.72
2016-04-10T09:01:43.033Z,21.79
2016-04-10T09:02:43.191Z,21.88
2016-04-10T09:03:43.194Z,21.8
2016-04-10T09:04:43.197Z,21.9
2016-04-10T09:05:43.199Z,21.75
2016-04-10T09:06:43.218Z,21.75
2016-04-10T09:07:43.221Z,21.75
2016-04-10T09:08:43.223Z,21.8
2016-04-10T09:09:43.227Z,21.77
2016-04-10T09:10:43.229Z,21.82
2016-04-10T09:11:43.247Z,21.84
2016-04-10T09:12:42.921Z,21.77
2016-04-10T09:13:43.253Z,21.77
2016-04-10T09:14:43.256Z,21.75
2016-04-10T09:15:43.258Z,21.75
2016-04-10T09:16:43.261Z,21.83
2016-04-10T09:17:43.279Z,21.82
2016-04-10T09:18:43.281Z,21.79
2016-04-10T09:19:43.284Z,21.82
2016-04-10T09:20:43.286Z,21.82
2016-04-10T09:21:43.290Z,21.8
2016-04-10T09:22:43.902Z,21.8
2016-04-10T09:23:43.311Z,21.79
2016-04-10T09:24:43.314Z,21.8
2016-04-10T09:25:43.316Z,21.84
2016-04-10T09:26:43.319Z,21.79
2016-04-10T09:27:43.321Z,21.8
2016-04-10T09:28:43.339Z,21.79
2016-04-10T09:29:43.342Z,21.86
2016-04-10T09:30:43.345Z,21.84
2016-04-10T09:31:43.363Z,21.91
2016-04-10T09:32:43.350Z,21.9
2016-04-10T09:33:43.369Z,21.77
2016-04-10T09:34:43.371Z,21.83
2016-04-10T09:35:43.374Z,21.82
2016-04-10T09:36:43.377Z,21.86
2016-04-10T09:37:43.396Z,21.9
2016-04-10T09:38:43.382Z,21.92
2016-04-10T09:39:43.385Z,21.9
2016-04-10T09:40:43.404Z,21.98
2016-04-10T09:41:43.406Z,21.91
2016-04-10T09:42:43.409Z,22.02
2016-04-10T09:43:43.427Z,21.91
2016-04-10T09:44:43.414Z,22.02
2016-04-10T09:45:43.448Z,22.02
2016-04-10T09:46:43.435Z,22
2016-04-10T09:47:43.437Z,22.05
2016-04-10T09:48:43.456Z,22.1
2016-04-10T09:49:43.443Z,22.15
2016-04-10T09:50:43.462Z,22.17
2016-04-10T09:51:43.464Z,22.22
2016-04-10T09:52:43.514Z,22.15
2016-04-10T09:53:43.469Z,22.14
2016-04-10T09:54:43.488Z,22.12
2016-04-10T09:55:43.491Z,22.18
2016-04-10T09:56:43.494Z,22.17
2016-04-10T09:57:43.512Z,22.18
2016-04-10T09:58:43.499Z,22.27
2016-04-10T09:59:43.564Z,22.18
2016-04-10T10:00:43.519Z,22.15
2016-04-10T10:01:43.538Z,22.17
2016-04-10T10:02:43.541Z,22.14
2016-04-10T10:03:43.543Z,22.17
2016-04-10T10:04:43.546Z,22.12
2016-04-10T10:05:43.549Z,22.12
2016-04-10T10:06:43.599Z,22.1
2016-04-10T10:07:43.555Z,22.06
2016-04-10T10:08:43.561Z,22.14
2016-04-10T10:09:43.579Z,22.14
2016-04-10T10:10:43.582Z,22.12
2016-04-10T10:11:43.614Z,22.1
2016-04-10T10:12:43.675Z,22.14
2016-04-10T10:13:43.719Z,22.06
2016-04-10T10:14:43.764Z,22.12
2016-04-10T10:15:43.840Z,22.09
2016-04-10T10:16:43.835Z,22.02
2016-04-10T10:17:43.869Z,22.1
2016-04-10T10:18:43.887Z,22.05
2016-04-10T10:19:43.905Z,22.07
2016-04-10T10:20:43.923Z,22.03
2016-04-10T10:21:43.935Z,21.99
2016-04-10T10:22:43.943Z,22
2016-04-10T10:23:43.966Z,22.02
2016-04-10T10:24:43.990Z,22.05
2016-04-10T10:25:43.982Z,22.05
2016-04-10T10:26:44.003Z,22.09
2016-04-10T10:27:44.008Z,22.05
2016-04-10T10:28:44.013Z,22.03
2016-04-10T10:29:44.017Z,22.03
2016-04-10T10:30:44.022Z,22.06
2016-04-10T10:31:44.026Z,22.05
2016-04-10T10:32:44.030Z,22.06
2016-04-10T10:33:44.048Z,22.07
2016-04-10T10:34:44.051Z,22.02
2016-04-10T10:35:44.055Z,22.09
2016-04-10T10:36:44.058Z,22
2016-04-10T10:37:44.077Z,21.99
2016-04-10T10:38:44.080Z,22.06
2016-04-10T10:39:44.099Z,22.06
2016-04-10T10:40:44.086Z,22.07
2016-04-10T10:41:44.089Z,22.09
2016-04-10T10:42:44.107Z,22.03
2016-04-10T10:43:44.110Z,22.07
2016-04-10T10:44:44.113Z,22.02
2016-04-10T10:45:44.116Z,22.02
2016-04-10T10:46:44.134Z,22.06
2016-04-10T10:47:44.136Z,22.07
2016-04-10T10:48:44.139Z,22
2016-04-10T10:49:44.141Z,22.02
2016-04-10T10:50:44.160Z,22.07
2016-04-10T10:51:44.163Z,22.1
2016-04-10T10:52:44.165Z,22.05
2016-04-10T10:53:44.168Z,22.03
2016-04-10T10:54:44.170Z,22.03
2016-04-10T10:55:44.173Z,21.99
2016-04-10T10:56:44.192Z,22
2016-04-10T10:57:44.209Z,22
2016-04-10T10:58:44.197Z,22.07
2016-04-10T10:59:44.215Z,22.09
2016-04-10T11:00:44.218Z,21.99
2016-04-10T11:01:44.237Z,22.06
2016-04-10T11:02:44.223Z,22.12
2016-04-10T11:03:44.242Z,22.09
2016-04-10T11:04:44.229Z,22.03
2016-04-10T11:05:44.247Z,22.03
2016-04-10T11:06:44.250Z,22.07
2016-04-10T11:07:44.253Z,22.03
2016-04-10T11:08:44.271Z,22.06
2016-04-10T11:09:44.274Z,22.05
2016-04-10T11:10:44.276Z,22.09
2016-04-10T11:11:44.279Z,22
2016-04-10T11:12:44.282Z,22
2016-04-10T11:13:44.284Z,22.07
2016-04-10T11:14:44.303Z,22.05
2016-04-10T11:15:44.305Z,22.06
2016-04-10T11:16:44.324Z,22
2016-04-10T11:17:44.311Z,22.02
2016-04-10T11:18:44.313Z,22
2016-04-10T11:19:44.332Z,21.86
2016-04-10T11:20:44.334Z,22.03
2016-04-10T11:21:44.337Z,22.07
2016-04-10T11:22:44.355Z,22.03
2016-04-10T11:23:44.343Z,22
2016-04-10T11:24:44.361Z,22.07
2016-04-10T11:25:44.379Z,21.98
2016-04-10T11:26:44.366Z,21.91
2016-04-10T11:27:44.384Z,22.02
2016-04-10T11:28:44.387Z,22
2016-04-10T11:29:44.374Z,22.05
2016-04-10T11:30:44.408Z,21.96
2016-04-10T11:31:44.395Z,22.05
2016-04-10T11:32:44.413Z,21.96
2016-04-10T11:33:44.416Z,22.07
2016-04-10T11:34:44.403Z,22.07
2016-04-10T11:35:44.422Z,22.07
2016-04-10T11:36:44.424Z,22.07
2016-04-10T11:37:44.428Z,22.06
2016-04-10T11:38:44.445Z,22.03
2016-04-10T11:39:44.448Z,22.06
2016-04-10T11:40:44.436Z,22.07
2016-04-10T11:41:44.453Z,21.99
2016-04-10T11:42:44.472Z,22
2016-04-10T11:43:44.474Z,22.07
2016-04-10T11:44:44.477Z,22.05
2016-04-10T11:45:44.480Z,22
2016-04-10T11:46:44.483Z,22.09
2016-04-10T11:47:44.501Z,22
2016-04-10T11:48:44.503Z,22.02
2016-04-10T11:49:44.506Z,22.09
2016-04-10T11:50:44.509Z,22
2016-04-10T11:51:44.511Z,21.96
2016-04-10T11:52:44.514Z,22.06
2016-04-10T11:53:44.516Z,22.06
2016-04-10T11:54:44.551Z,22
2016-04-10T11:55:44.538Z,22.05
2016-04-10T11:56:44.540Z,22.14
2016-04-10T11:57:44.574Z,21.99
2016-04-10T11:58:44.562Z,21.99
2016-04-10T11:59:44.564Z,22.02
2016-04-10T12:00:44.582Z,22.1
2016-04-10T12:01:44.570Z,22.06
2016-04-10T12:02:44.573Z,22.02
2016-04-10T12:03:44.591Z,22.05
2016-04-10T12:04:44.593Z,22.12
2016-04-10T12:05:44.612Z,22.07
2016-04-10T12:06:44.614Z,22.07
2016-04-10T12:07:44.617Z,22.09
2016-04-10T12:08:44.636Z,22.02
2016-04-10T12:09:44.638Z,22.03
2016-04-10T12:10:44.625Z,22.06
2016-04-10T12:11:44.643Z,22.05
2016-04-10T12:12:44.646Z,22.05
2016-04-10T12:13:44.649Z,22.02
2016-04-10T12:14:44.651Z,22.12
2016-04-10T12:15:44.670Z,22.1
2016-04-10T12:16:44.672Z,22.14
2016-04-10T12:17:44.660Z,22.03
2016-04-10T12:18:44.678Z,22.06
2016-04-10T12:19:44.680Z,22
2016-04-10T12:20:44.683Z,22.07
2016-04-10T12:21:44.685Z,22.07
2016-04-10T12:22:44.720Z,22.06
2016-04-10T12:23:44.691Z,22.1
2016-04-10T12:24:44.772Z,22.07
2016-04-10T12:25:44.713Z,22.09
2016-04-10T12:26:44.716Z,22.07
2016-04-10T12:27:44.733Z,22.06
2016-04-10T12:28:44.736Z,22.05
2016-04-10T12:29:44.739Z,21.99
2016-04-10T12:30:44.757Z,22.07
2016-04-10T12:31:44.744Z,22.12
2016-04-10T12:32:44.746Z,22.14
2016-04-10T12:33:44.765Z,22.07
2016-04-10T12:34:44.767Z,22.03
2016-04-10T12:35:44.786Z,22.14
2016-04-10T12:36:44.773Z,22.12
2016-04-10T12:37:44.791Z,22.12
2016-04-10T12:38:44.794Z,22.15
2016-04-10T12:39:44.640Z,22.06
2016-04-10T12:40:44.800Z,22.06
2016-04-10T12:41:44.818Z,22.02
2016-04-10T12:42:44.836Z,22.07
2016-04-10T12:43:44.823Z,22.06
2016-04-10T12:44:44.825Z,22.03
2016-04-10T12:45:44.844Z,21.98
2016-04-10T12:46:44.847Z,22.05
2016-04-10T12:47:44.849Z,22.05
2016-04-10T12:48:44.868Z,22
2016-04-10T12:49:44.854Z,22.05
2016-04-10T12:50:44.873Z,22.03
2016-04-10T12:51:44.876Z,22.07
2016-04-10T12:52:44.879Z,22.07
2016-04-10T12:53:44.882Z,22.05
2016-04-10T12:54:44.931Z,22.12
2016-04-10T12:55:44.887Z,21.96
2016-04-10T12:56:44.905Z,22.12
2016-04-10T12:57:44.908Z,22.03